Latest Weather Observations for Camden

IDN60801

Issued at 4:03 am EDT Sunday 2 October 2016 (issued every 30 minutes, with the page automatically refreshed every 10 minutes)

About weather observations | Map of weather stations | Latest weather observations for NSW | Other Formats
Station Details ID: 068192 Name: CAMDEN AIRPORT AWS Lat: -34.04 Lon: 150.69 Height: 73.9 m
Data from the previous 72 hours. | See also: Recent months at Camden
Date/Time
EDT
Temp
°C
App
Temp
°C
Dew
Point
°C
Rel
Hum
%
Delta-T
°C
Wind Press
QNH
hPa
Press
MSL
hPa
Rain since
9am
mm
Dir  Spd
km/h
Gust
km/h
Spd
kts
Gust
kts
02/04:00am 4.8 3.5 3.9 94 0.4 CALM 0 7 0 4 1010.8 1010.7 0.0
02/03:30am 5.0 3.7 4.3 95 0.3 CALM 0 0 0 0 1010.7 1010.6 0.0
02/03:00am 5.4 4.2 4.4 93 0.4 CALM 0 0 0 0 1010.5 1010.4 0.0
02/01:30am 5.8 4.3 4.8 93 0.4 SE 2 7 1 4 1010.5 1010.4 0.0
02/01:00am 6.1 4.9 4.6 90 0.7 CALM 0 0 0 0 1010.6 1010.5 0.0
02/12:30am 6.9 5.9 5.4 90 0.7 CALM 0 0 0 0 1010.6 1010.5 0.0
02/12:00am 7.6 6.6 5.6 87 0.9 CALM 0 0 0 0 1010.7 1010.6 0.0
 
Date/Time
EDT
Temp
°C
App
Temp
°C
Dew
Point
°C
Rel
Hum
%
Delta-T
°C
Wind Press
QNH
hPa
Press
MSL
hPa
Rain since
9am
mm
Dir  Spd
km/h
Gust
km/h
Spd
kts
Gust
kts
01/11:30pm 7.9 6.1 5.5 85 1.1 N 4 7 2 4 1010.8 1010.7 0.0
01/11:00pm 8.9 6.6 5.8 81 1.4 NNW 7 11 4 6 1011.0 1010.9 0.0
01/10:30pm 9.2 7.4 5.2 76 1.8 NNE 4 7 2 4 1011.1 1011.0 0.0
01/10:00pm 9.1 7.9 4.5 73 2.0 CALM 0 0 0 0 1011.2 1011.1 0.0
01/09:30pm 10.4 8.1 4.8 68 2.5 NNW 6 7 3 4 1011.1 1011.0 0.0
01/09:00pm 11.2 9.5 4.0 61 3.2 NW 2 7 1 4 1010.9 1010.8 0.0
01/08:30pm 14.0 12.5 3.2 48 4.9 CALM 0 0 0 0 1010.6 1010.5 0.0
01/08:00pm 15.1 12.3 3.0 44 5.5 WNW 7 11 4 6 1010.3 1010.2 0.0
01/07:30pm 15.6 11.3 3.1 43 5.7 WNW 15 26 8 14 1009.9 1009.8 0.0
01/07:00pm 15.8 11.6 3.6 44 5.6 WNW 15 28 8 15 1009.4 1009.3 0.0
01/06:30pm 16.1 11.0 3.9 44 5.7 W 20 33 11 18 1008.9 1008.8 0.0
01/06:00pm 17.2 11.4 4.2 42 6.1 W 24 39 13 21 1008.2 1008.1 0.0
01/05:30pm 17.5 11.6 4.1 41 6.3 W 24 35 13 19 1007.7 1007.6 0.0
01/05:03pm 18.3 11.7 4.1 39 6.7 W 28 46 15 25 1007.4 1007.3 0.0
01/05:00pm 18.7 12.3 5.2 41 6.6 W 28 41 15 22 1007.4 1007.3 0.0
01/04:36pm 18.3 11.7 4.1 39 6.7 WNW 28 46 15 25 1006.9 1006.7 0.0
01/04:30pm 18.4 11.3 3.8 38 6.9 WNW 30 44 16 24 1006.8 1006.6 0.0
01/04:00pm 19.6 12.2 4.9 38 7.2 W 33 57 18 31 1006.5 1006.3 0.0
01/03:30pm 19.4 11.9 4.4 37 7.2 W 33 54 18 29 1006.2 1006.0 0.0
01/03:14pm 19.4 11.2 4.7 38 7.1 W 37 57 20 31 1006.1 1005.9 0.0
01/03:00pm 18.8 10.5 4.2 38 7.0 W 37 48 20 26 1006.2 1006.0 0.0
01/02:42pm 19.5 12.1 5.2 39 7.0 WNW 33 52 18 28 1006.1 1005.9 0.0
01/02:30pm 19.1 11.4 5.2 40 6.8 W 35 50 19 27 1005.8 1005.6 0.0
01/02:00pm 20.0 12.1 4.5 36 7.5 WNW 35 59 19 32 1005.8 1005.6 0.0
01/01:30pm 20.3 13.1 5.1 37 7.5 W 32 50 17 27 1006.0 1005.8 0.0
01/01:06pm 19.3 11.4 4.6 38 7.1 W 35 54 19 29 1005.9 1005.7 0.0
01/01:00pm 20.5 13.3 5.7 38 7.4 W 33 48 18 26 1005.9 1005.7 0.0
01/12:30pm 19.4 12.4 5.8 41 6.7 WNW 32 48 17 26 1005.9 1005.7 0.0
01/12:00pm 19.6 12.3 4.5 37 7.3 WNW 32 50 17 27 1005.8 1005.6 0.0
01/11:33am 20.7 14.6 6.6 40 7.1 WNW 28 46 15 25 1005.6 1005.4 0.0
01/11:30am 19.9 13.7 6.3 41 6.8 WNW 28 39 15 21 1005.7 1005.5 0.0
01/11:00am 19.6 14.9 6.0 41 6.8 NW 20 30 11 16 1006.0 1005.8 0.0
01/10:30am 17.3 11.9 6.5 49 5.3 NW 24 35 13 19 1006.6 1006.4 0.0
01/10:00am 18.2 12.7 5.8 44 6.1 WNW 24 35 13 19 1006.5 1006.3 0.0
01/09:30am 18.0 13.4 6.5 47 5.7 W 20 30 11 16 1006.4 1006.3 0.0
01/09:00am 17.3 15.2 8.4 56 4.6 WNW 9 15 5 8 1006.3 1006.2 0.0
01/08:30am 16.2 13.7 8.2 59 4.1 NNW 11 20 6 11 1006.0 1005.9 0.0
01/08:00am 13.4 11.9 8.5 72 2.5 NW 6 9 3 5 1005.8 1005.7 0.0
01/07:30am 11.7 11.5 9.1 84 1.3 CALM 0 0 0 0 1005.5 1005.4 0.0
01/07:00am 9.9 9.5 8.2 89 0.8 CALM 0 0 0 0 1005.1 1005.0 0.0
01/06:30am 8.8 8.3 7.7 93 0.5 CALM 0 0 0 0 1004.7 1004.6 0.0
01/06:00am 8.2 7.2 7.3 94 0.4 NW 2 9 1 5 1004.0 1003.9 0.0
01/05:30am 7.8 7.1 7.1 95 0.3 CALM 0 0 0 0 1003.6 1003.5 0.0
01/05:00am 7.5 6.0 6.9 96 0.3 NW 4 7 2 4 1003.0 1002.9 0.0
01/04:30am 6.9 5.3 6.2 95 0.3 NNW 4 7 2 4 1002.2 1002.1 0.0
01/04:00am 6.7 5.7 5.8 94 0.4 CALM 0 9 0 5 1001.8 1001.7 0.0
01/03:30am 6.4 5.3 5.2 92 0.5 CALM 0 0 0 0 1001.2 1001.2 0.0
01/03:00am 6.3 3.9 5.1 92 0.5 S 7 9 4 5 1000.8 1000.8 0.0
01/02:30am 6.9 4.7 5.5 91 0.6 ESE 6 7 3 4 1000.8 1000.8 0.0
01/02:00am 6.5 4.5 4.3 86 1.0 E 4 9 2 5 1000.8 1000.8 0.0
01/01:30am 7.1 5.6 4.9 86 1.0 NE 2 7 1 4 1001.2 1001.2 0.0
01/01:00am 8.0 5.7 5.5 84 1.1 SE 7 9 4 5 1001.3 1001.3 0.0
01/12:30am 9.5 7.4 5.7 77 1.7 WSW 6 9 3 5 1001.5 1001.4 0.0
01/12:00am 9.9 8.9 5.7 75 1.9 CALM 0 7 0 4 1001.8 1001.7 0.0
 
Date/Time
EDT
Temp
°C
App
Temp
°C
Dew
Point
°C
Rel
Hum
%
Delta-T
°C
Wind Press
QNH
hPa
Press
MSL
hPa
Rain since
9am
mm
Dir  Spd
km/h
Gust
km/h
Spd
kts
Gust
kts
30/11:30pm 10.3 9.1 4.7 68 2.5 CALM 0 4 0 2 1001.9 1001.8 0.0
30/11:00pm 10.8 7.9 4.7 66 2.8 SE 9 13 5 7 1002.2 1002.1 0.0
30/10:30pm 11.7 10.6 4.9 63 3.1 CALM 0 0 0 0 1002.2 1002.1 0.0
30/10:00pm 11.5 9.8 3.8 59 3.5 NW 2 11 1 6 1002.1 1002.0 0.0
30/09:30pm 12.1 8.7 4.1 58 3.6 N 11 15 6 8 1001.8 1001.7 0.0
30/09:00pm 12.7 10.1 3.4 53 4.2 NE 6 13 3 7 1001.2 1001.2 0.0
30/08:30pm 12.1 8.6 3.3 55 3.9 NE 11 17 6 9 1001.3 1001.3 0.0
30/08:00pm 12.1 9.9 3.6 56 3.8 NE 4 9 2 5 1001.2 1001.2 0.0
30/07:30pm 12.8 9.8 4.0 55 4.0 N 9 13 5 7 1000.9 1000.9 0.0
30/07:00pm 13.4 8.4 3.8 52 4.4 W 19 32 10 17 1000.5 1000.5 0.0
30/06:30pm 12.6 9.6 4.1 56 3.9 W 9 15 5 8 1000.3 1000.3 0.0
30/06:00pm 13.7 9.6 4.3 53 4.4 NW 15 22 8 12 999.8 999.8 0.0
30/05:30pm 14.7 10.2 4.1 49 4.9 NW 17 24 9 13 999.3 999.3 0.0
30/05:00pm 15.2 8.9 4.0 47 5.2 NW 26 41 14 22 999.1 999.1 0.0
30/04:40pm 16.0 9.3 3.8 44 5.7 NW 28 48 15 26 998.7 998.7 0.0
30/04:30pm 16.3 9.7 4.4 45 5.6 NW 28 39 15 21 998.5 998.5 0.0
30/04:00pm 16.9 10.2 3.9 42 6.1 NW 28 41 15 22 998.1 998.1 0.0
30/03:30pm 16.7 9.4 2.7 39 6.4 NW 30 41 16 22 997.7 997.7 0.0
30/03:00pm 16.7 7.7 2.7 39 6.4 NW 39 61 21 33 997.3 997.3 0.0
30/02:57pm 16.9 8.7 2.5 38 6.5 NW 35 56 19 30 997.6 997.6 0.0
30/02:30pm 17.1 9.7 3.8 41 6.2 NW 32 48 17 26 997.5 997.5 0.0
30/02:00pm 16.6 8.1 3.0 40 6.3 NW 37 50 20 27 997.6 997.6 0.0
30/01:35pm 18.2 10.4 4.7 41 6.5 NNW 35 56 19 30 997.6 997.6 0.0
30/01:30pm 17.6 10.6 5.9 46 5.7 NNW 32 44 17 24 997.7 997.7 0.0
30/01:02pm 16.1 8.7 4.2 45 5.6 NNW 32 50 17 27 997.8 997.8 0.0
30/01:00pm 16.3 9.4 4.4 45 5.6 NNW 30 46 16 25 997.8 997.8 0.0
30/12:30pm 16.5 9.0 4.5 45 5.7 NNW 33 46 18 25 997.9 997.9 0.0
30/12:00pm 15.8 9.3 4.5 47 5.3 NNW 28 46 15 25 998.2 998.2 0.0
30/11:59am 15.9 9.5 5.2 49 5.1 NW 28 46 15 25 998.2 998.2 0.0
30/11:30am 15.8 8.8 4.2 46 5.4 NNW 30 37 16 20 998.3 998.3 0.0
30/11:00am 17.2 10.4 5.2 45 5.8 NNW 30 37 16 20 998.3 998.3 0.0
30/10:30am 18.2 11.2 5.8 44 6.1 NNW 32 43 17 23 998.3 998.3 0.0
30/10:00am 17.4 11.7 4.7 43 6.1 NW 24 33 13 18 998.2 998.2 0.0
30/09:30am 15.5 10.4 3.9 46 5.4 NNW 20 28 11 15 998.2 998.2 0.0
30/09:00am 15.4 10.5 4.2 47 5.2 NNW 19 26 10 14 998.5 998.5 1.6
30/08:30am 14.8 9.8 4.8 51 4.7 NNW 20 24 11 13 998.5 998.5 1.6
30/08:00am 14.0 9.1 4.0 51 4.6 NNW 19 26 10 14 998.4 998.4 1.6
30/07:30am 13.5 8.3 3.6 51 4.5 NNW 20 28 11 15 998.1 998.1 1.6
30/07:00am 14.2 9.1 3.9 50 4.8 N 20 26 11 14 997.9 997.9 1.6
30/06:30am 12.7 7.4 3.1 52 4.3 N 20 24 11 13 997.6 997.6 1.6
30/06:00am 11.8 6.5 2.8 54 4.0 N 20 28 11 15 997.4 997.4 1.6
30/05:30am 11.6 6.5 2.9 55 3.8 N 19 28 10 15 997.1 997.1 1.6
30/05:00am 11.6 6.9 2.9 55 3.8 N 17 20 9 11 997.1 997.1 1.6
30/04:30am 11.3 6.0 3.1 57 3.6 N 20 26 11 14 997.0 996.9 1.6
30/04:00am 11.3 6.2 3.1 57 3.6 N 19 24 10 13 996.9 996.8 1.6
30/03:30am 10.2 6.6 2.8 60 3.2 N 11 13 6 7 997.4 997.4 1.6
30/03:00am 11.7 6.3 2.5 53 4.0 NNW 20 26 11 14 997.2 997.2 1.6
30/02:30am 11.1 6.3 2.4 55 3.7 NNW 17 20 9 11 997.5 997.5 1.6
30/02:00am 11.1 6.3 2.4 55 3.8 N 17 19 9 10 998.1 998.1 1.6
30/01:30am 11.4 7.7 2.2 53 4.0 N 11 13 6 7 998.6 998.6 1.6
30/01:00am 12.8 6.9 1.5 46 4.9 NNW 22 39 12 21 998.7 998.7 1.6
30/12:30am 13.9 7.7 1.9 44 5.2 NW 24 33 13 18 998.8 998.8 1.6
30/12:00am 13.6 7.4 2.2 46 5.0 NW 24 35 13 19 998.8 998.8 1.6
 
Date/Time
EDT
Temp
°C
App
Temp
°C
Dew
Point
°C
Rel
Hum
%
Delta-T
°C
Wind Press
QNH
hPa
Press
MSL
hPa
Rain since
9am
mm
Dir  Spd
km/h
Gust
km/h
Spd
kts
Gust
kts
29/11:30pm 13.5 8.1 2.7 48 4.8 NW 20 28 11 15 998.7 998.7 1.6
29/11:00pm 13.1 8.7 2.9 50 4.6 NW 15 20 8 11 998.6 998.6 1.6
29/10:30pm 13.6 8.5 2.8 48 4.8 NW 19 28 10 15 998.4 998.4 1.6
29/10:00pm 14.0 9.6 2.9 47 5.0 NNW 15 30 8 16 998.1 998.1 1.6
29/09:30pm 14.5 7.6 2.7 45 5.3 NW 28 46 15 25 998.3 998.3 1.6
29/09:25pm 14.3 7.5 2.9 46 5.1 NW 28 46 15 25 998.3 998.3 1.6
29/09:00pm 11.4 8.2 5.3 66 2.8 NNW 11 32 6 17 998.0 998.0 1.6
29/08:30pm 10.4 8.0 5.4 71 2.3 N 7 11 4 6 997.5 997.5 1.6
29/08:00pm 10.8 8.6 5.3 69 2.5 N 6 17 3 9 997.2 997.2 1.6
29/07:30pm 12.4 9.4 5.8 64 3.1 NNW 11 15 6 8 997.1 997.1 1.6
29/07:00pm 12.6 9.9 5.5 62 3.3 NW 9 11 5 6 996.7 996.6 1.6
29/06:30pm 14.8 11.8 4.2 49 4.9 WNW 9 11 5 6 996.1 996.0 1.6
29/06:00pm 16.4 12.1 3.5 42 6.0 NW 15 20 8 11 995.7 995.6 1.6
29/05:30pm 17.9 13.3 3.8 39 6.6 NW 17 26 9 14 995.3 995.2 1.6
29/05:00pm 19.2 11.8 2.1 32 7.9 NW 30 44 16 24 995.1 995.0 1.6
29/04:30pm 19.9 12.7 3.2 33 7.9 NW 30 43 16 23 994.1 994.0 1.6
29/04:00pm 20.5 13.0 3.7 33 8.1 WNW 32 46 17 25 993.9 993.8 1.6
29/03:54pm 20.6 13.8 3.3 32 8.2 NW 28 43 15 23 993.9 993.8 1.6
29/03:30pm 20.8 18.3 11.2 54 5.3 NNW 15 20 8 11 993.5 993.4 1.6
29/03:00pm 20.2 18.3 12.9 63 4.2 N 15 20 8 11 993.7 993.6 1.6
29/02:30pm 19.0 16.9 13.6 71 3.1 N 17 28 9 15 994.2 994.1 1.6
29/02:00pm 17.1 16.5 13.4 79 2.1 N 9 13 5 7 994.6 994.5 1.6
29/01:30pm 16.6 15.4 15.0 90 0.9 NNW 15 20 8 11 995.4 995.3 1.6
29/01:00pm 15.9 12.5 12.6 81 1.8 N 22 32 12 17 995.5 995.4 0.4
29/12:30pm 17.0 14.0 11.9 72 2.8 N 19 26 10 14 996.4 996.3 0.2
29/12:21pm 16.5 13.1 11.4 72 2.8 N 20 24 11 13 996.4 996.3 0.2
29/12:10pm 15.8 12.5 11.0 73 2.6 NNE 19 28 10 15 996.5 996.4 0.2
29/12:00pm 16.4 13.7 11.8 74 2.5 N 17 22 9 12 996.7 996.6 0.2
29/11:30am 14.6 12.9 11.2 80 1.8 NE 11 19 6 10 997.5 997.5 0.2
29/11:00am 12.6 11.8 11.2 91 0.7 SE 6 7 3 4 998.5 998.5 0.2
29/10:30am 11.6 10.6 10.3 92 0.7 S 6 7 3 4 999.1 999.1 0.2
29/10:00am 11.0 11.1 10.1 94 0.5 CALM 0 6 0 3 1000.0 1000.0 0.2
29/09:30am 10.6 9.3 10.1 97 0.3 SSE 7 9 4 5 1000.3 1000.3 0.0
29/09:00am 10.2 9.4 9.6 96 0.3 E 4 7 2 4 1000.7 1000.7 4.0
29/08:59am 10.3 9.5 9.8 97 0.3 ENE 4 7 2 4 1000.7 1000.7 4.0
29/08:41am 10.0 9.8 9.2 95 0.4 CALM 0 0 0 0 1001.2 1001.2 3.4
29/08:30am 9.9 9.7 9.1 95 0.4 CALM 0 0 0 0 1001.5 1001.4 2.8
29/08:00am 9.7 9.5 9.1 96 0.3 CALM 0 6 0 3 1001.6 1001.5 2.2
29/07:39am 9.5 8.0 9.0 97 0.2 WNW 7 9 4 5 1001.8 1001.7 2.0
29/07:30am 9.4 7.8 8.9 97 0.2 WSW 7 9 4 5 1002.0 1001.9 1.8
29/07:12am 9.0 6.9 8.4 96 0.3 SSE 9 13 5 7 1001.6 1001.5 1.4
29/07:00am 9.1 7.9 8.2 94 0.4 ESE 4 9 2 5 1001.9 1001.8 0.8
29/06:30am 9.0 8.5 7.9 93 0.5 CALM 0 4 0 2 1002.5 1002.4 0.0
29/06:00am 8.6 8.0 7.5 93 0.5 CALM 0 0 0 0 1002.4 1002.3 0.0
29/05:30am 8.4 7.8 7.3 93 0.5 CALM 0 0 0 0 1003.2 1003.1 0.0
29/05:00am 8.2 7.5 7.0 92 0.6 CALM 0 0 0 0 1003.4 1003.3 0.0
29/04:30am 7.9 7.1 6.5 91 0.6 CALM 0 0 0 0 1003.6 1003.5 0.0
29/04:00am 7.7 6.9 6.5 92 0.6 CALM 0 0 0 0 1004.1 1004.0 0.0
29/03:30am 7.4 5.4 6.3 93 0.5 SSW 6 7 3 4 1004.5 1004.4 0.0

Other Formats:

Comma delimited format used in spreadsheet applications
http://www.bom.gov.au/fwo/IDN60801/IDN60801.94755.axf

JavaScript Object Notation format (JSON) in row-major order
http://www.bom.gov.au/fwo/IDN60801/IDN60801.94755.json